Time;durP1;ratioP1;P1;durP2;ratioP2;P2;SDS_P1;SDS_P2;PMS_P1;PMS_P2;Temp;Humidity;BMP_temperature;BMP_pressure;BME280_temperature;BME280_humidity;BME280_pressure;Samples;Min_cycle;Max_cycle;Signal;HPM_P1;HPM_P2
2024/04/18 00:00:04;;;;;;;1.70;1.60;;;;;;;;;;5420199;26;20725;-73
2024/04/18 00:02:30;;;;;;;2.10;2.00;;;;;;;;;;5428606;26;20230;-73
2024/04/18 00:04:59;;;;;;;1.60;1.50;;;;;;;;;;5445316;26;20234;-73
2024/04/18 00:07:25;;;;;;;2.00;1.90;;;;;;;;;;5447285;26;20245;-73
2024/04/18 00:09:53;;;;;;;2.97;1.92;;;;;;;;;;5442862;26;20346;-72
2024/04/18 00:12:20;;;;;;;2.42;2.00;;;;;;;;;;5443329;26;20278;-72
2024/04/18 00:14:48;;;;;;;2.08;1.90;;;;;;;;;;5449954;26;20728;-73
2024/04/18 00:17:17;;;;;;;1.90;1.77;;;;;;;;;;5450729;26;20242;-72
2024/04/18 00:19:46;;;;;;;2.03;1.92;;;;;;;;;;5450330;26;20277;-72
2024/04/18 00:22:12;;;;;;;1.90;1.80;;;;;;;;;;5414412;26;20234;-72
2024/04/18 00:24:41;;;;;;;2.35;2.10;;;;;;;;;;5414783;26;20277;-72
2024/04/18 00:27:07;;;;;;;2.47;2.30;;;;;;;;;;5414542;26;20585;-72
2024/04/18 00:29:38;;;;;;;2.60;2.40;;;;;;;;;;5414695;26;20243;-72
2024/04/18 00:32:05;;;;;;;2.28;2.08;;;;;;;;;;5414794;26;20819;-72
2024/04/18 00:34:36;;;;;;;2.10;2.00;;;;;;;;;;5414237;26;20733;-72
2024/04/18 00:37:03;;;;;;;3.47;1.92;;;;;;;;;;5418837;26;20243;-73
2024/04/18 00:39:31;;;;;;;1.92;1.83;;;;;;;;;;5450522;26;20272;-72
2024/04/18 00:41:57;;;;;;;3.70;2.00;;;;;;;;;;5450402;26;20273;-72
2024/04/18 00:44:26;;;;;;;1.73;1.63;;;;;;;;;;5450156;26;20241;-72
2024/04/18 00:46:53;;;;;;;2.20;2.00;;;;;;;;;;5450841;26;20275;-72
2024/04/18 00:49:22;;;;;;;1.80;1.70;;;;;;;;;;5450412;26;20233;-72
2024/04/18 00:51:51;;;;;;;2.88;1.92;;;;;;;;;;5450341;26;20230;-72
2024/04/18 00:54:20;;;;;;;2.08;1.90;;;;;;;;;;5450214;26;20339;-73
2024/04/18 00:56:46;;;;;;;2.88;2.63;;;;;;;;;;5450283;26;20227;-72
2024/04/18 00:59:15;;;;;;;1.88;1.77;;;;;;;;;;5450191;26;20309;-72
2024/04/18 01:01:42;;;;;;;3.30;2.13;;;;;;;;;;5450059;26;20230;-72
2024/04/18 01:04:11;;;;;;;1.65;1.55;;;;;;;;;;5449982;26;20786;-72
2024/04/18 01:06:38;;;;;;;2.58;2.13;;;;;;;;;;5450159;26;20273;-72
2024/04/18 01:09:10;;;;;;;3.75;1.95;;;;;;;;;;5449915;26;20234;-73
2024/04/18 01:11:36;;;;;;;1.85;1.75;;;;;;;;;;5439558;26;20623;-72
2024/04/18 01:14:11;;;;;;;2.30;2.10;;;;;;;;;;5413481;26;20243;-72
2024/04/18 01:16:37;;;;;;;1.90;1.80;;;;;;;;;;5413848;26;20275;-72
2024/04/18 01:19:06;;;;;;;3.28;2.40;;;;;;;;;;5414043;26;20227;-72
2024/04/18 01:21:32;;;;;;;1.85;1.73;;;;;;;;;;5413591;26;20780;-72
2024/04/18 01:24:01;;;;;;;5.80;2.20;;;;;;;;;;5413758;26;20239;-73
2024/04/18 01:26:30;;;;;;;2.15;1.95;;;;;;;;;;5413959;26;20627;-72
2024/04/18 01:28:59;;;;;;;2.40;2.20;;;;;;;;;;5413774;26;20368;-72
2024/04/18 01:31:25;;;;;;;3.10;2.58;;;;;;;;;;5413904;26;20580;-72
2024/04/18 01:33:57;;;;;;;2.15;1.95;;;;;;;;;;5413690;26;20230;-72
2024/04/18 01:36:23;;;;;;;2.58;2.38;;;;;;;;;;5413794;26;20235;-72
2024/04/18 01:38:51;;;;;;;2.35;2.25;;;;;;;;;;5413241;26;20243;-72
2024/04/18 01:41:20;;;;;;;2.03;1.83;;;;;;;;;;5413871;26;20222;-72
2024/04/18 01:43:51;;;;;;;2.30;2.00;;;;;;;;;;5413518;26;20336;-72
2024/04/18 01:46:17;;;;;;;3.33;2.58;;;;;;;;;;5414049;26;20274;-73
2024/04/18 01:48:48;;;;;;;2.33;2.15;;;;;;;;;;5443885;26;20330;-72
2024/04/18 01:51:14;;;;;;;1.90;1.80;;;;;;;;;;5443260;26;20281;-72
2024/04/18 01:53:43;;;;;;;1.95;1.65;;;;;;;;;;5412745;26;20674;-72
2024/04/18 01:56:09;;;;;;;2.47;2.20;;;;;;;;;;5414170;26;20223;-72
2024/04/18 01:58:38;;;;;;;1.95;1.80;;;;;;;;;;5413598;26;20269;-72
2024/04/18 02:01:07;;;;;;;2.83;2.60;;;;;;;;;;5413300;26;20270;-72
2024/04/18 02:03:36;;;;;;;2.20;2.10;;;;;;;;;;5413212;26;20365;-72
2024/04/18 02:06:02;;;;;;;2.58;2.20;;;;;;;;;;5413332;26;20261;-72
2024/04/18 02:08:30;;;;;;;2.20;2.10;;;;;;;;;;5413372;26;20239;-72
2024/04/18 02:10:57;;;;;;;2.30;2.10;;;;;;;;;;5416519;26;20226;-73
2024/04/18 02:13:25;;;;;;;2.47;2.28;;;;;;;;;;5416632;26;20231;-72
2024/04/18 02:15:52;;;;;;;2.45;1.92;;;;;;;;;;5417092;26;20227;-73
2024/04/18 02:18:24;;;;;;;4.63;2.63;;;;;;;;;;5416824;26;20274;-72
2024/04/18 02:20:50;;;;;;;5.63;3.20;;;;;;;;;;5416777;26;20638;-72
2024/04/18 02:23:22;;;;;;;2.40;2.20;;;;;;;;;;5416424;26;20239;-72
2024/04/18 02:25:48;;;;;;;3.17;2.78;;;;;;;;;;5417159;26;20270;-72
2024/04/18 02:28:17;;;;;;;2.42;2.25;;;;;;;;;;5416811;26;20306;-72
2024/04/18 02:30:43;;;;;;;4.00;3.70;;;;;;;;;;5416870;26;20273;-72
2024/04/18 02:33:12;;;;;;;2.85;2.65;;;;;;;;;;5416288;26;20278;-73
2024/04/18 02:35:40;;;;;;;2.63;2.42;;;;;;;;;;5416811;26;20263;-72
2024/04/18 02:38:09;;;;;;;2.78;2.58;;;;;;;;;;5416607;26;20364;-72
2024/04/18 02:40:35;;;;;;;4.18;2.70;;;;;;;;;;5416565;26;20269;-72
2024/04/18 02:43:04;;;;;;;2.90;2.60;;;;;;;;;;5416430;26;20239;-72
2024/04/18 02:45:31;;;;;;;3.38;3.08;;;;;;;;;;5416645;26;20227;-72
2024/04/18 02:47:59;;;;;;;5.53;3.22;;;;;;;;;;5416403;26;20239;-72
2024/04/18 02:50:25;;;;;;;3.00;2.80;;;;;;;;;;5416387;26;20235;-72
2024/04/18 02:52:57;;;;;;;2.15;1.98;;;;;;;;;;5416072;26;20356;-72
2024/04/18 02:55:23;;;;;;;2.60;2.40;;;;;;;;;;5416296;26;20270;-72
2024/04/18 02:57:52;;;;;;;2.70;2.50;;;;;;;;;;5416359;26;20289;-73
2024/04/18 03:00:18;;;;;;;3.47;3.17;;;;;;;;;;5416170;26;20227;-73
2024/04/18 03:02:47;;;;;;;2.88;2.65;;;;;;;;;;5415944;26;20339;-72
2024/04/18 03:05:13;;;;;;;3.33;2.55;;;;;;;;;;5416278;26;20227;-72
2024/04/18 03:07:42;;;;;;;6.50;3.95;;;;;;;;;;5415977;26;20235;-73
2024/04/18 03:10:13;;;;;;;7.10;4.10;;;;;;;;;;5414336;26;20634;-72
2024/04/18 03:12:39;;;;;;;3.38;3.08;;;;;;;;;;5415838;26;20257;-73
2024/04/18 03:15:09;;;;;;;2.30;2.20;;;;;;;;;;5416074;26;20231;-73
2024/04/18 03:17:35;;;;;;;3.60;3.40;;;;;;;;;;5416515;26;20292;-73
2024/04/18 03:20:04;;;;;;;2.53;2.33;;;;;;;;;;5415952;26;20283;-72
2024/04/18 03:22:30;;;;;;;2.40;2.20;;;;;;;;;;5414439;26;20227;-73
2024/04/18 03:25:00;;;;;;;4.40;2.30;;;;;;;;;;5416154;26;20224;-72
2024/04/18 03:27:30;;;;;;;2.92;2.58;;;;;;;;;;5415850;26;20293;-73
2024/04/18 03:29:58;;;;;;;2.85;2.65;;;;;;;;;;5416084;26;20227;-72
2024/04/18 03:32:25;;;;;;;4.10;2.30;;;;;;;;;;5415544;26;20269;-72
2024/04/18 03:34:54;;;;;;;3.25;2.60;;;;;;;;;;5415621;26;20237;-72
2024/04/18 03:37:23;;;;;;;2.70;2.47;;;;;;;;;;5415559;26;20243;-72
2024/04/18 03:39:51;;;;;;;2.83;2.63;;;;;;;;;;5415855;26;20313;-72
2024/04/18 03:42:20;;;;;;;2.67;1.90;;;;;;;;;;5425719;26;20278;-73
2024/04/18 03:44:52;;;;;;;3.35;2.10;;;;;;;;;;5447340;26;20901;-73
2024/04/18 03:47:20;;;;;;;2.88;2.30;;;;;;;;;;5430512;26;20244;-73
2024/04/18 03:49:47;;;;;;;2.00;1.90;;;;;;;;;;5451235;26;20264;-73
2024/04/18 03:52:15;;;;;;;1.77;1.67;;;;;;;;;;5451258;26;20230;-72
2024/04/18 03:54:42;;;;;;;1.42;1.33;;;;;;;;;;5451618;26;20226;-73
2024/04/18 03:57:11;;;;;;;2.50;1.75;;;;;;;;;;5451458;26;20242;-72
2024/04/18 03:59:37;;;;;;;2.10;1.95;;;;;;;;;;5451537;26;20565;-72
2024/04/18 04:02:08;;;;;;;1.40;1.30;;;;;;;;;;5451402;26;20273;-72
2024/04/18 04:04:34;;;;;;;2.20;2.10;;;;;;;;;;5451422;26;20766;-73
2024/04/18 04:07:04;;;;;;;1.17;1.00;;;;;;;;;;5451109;26;20242;-72
2024/04/18 04:09:30;;;;;;;1.15;1.10;;;;;;;;;;5451057;26;20226;-72
2024/04/18 04:11:59;;;;;;;1.38;1.30;;;;;;;;;;5451326;26;20230;-72
2024/04/18 04:14:25;;;;;;;1.55;1.45;;;;;;;;;;5451182;26;20230;-72
2024/04/18 04:16:54;;;;;;;2.17;1.98;;;;;;;;;;5451507;26;20230;-72
2024/04/18 04:19:23;;;;;;;2.08;1.98;;;;;;;;;;5451522;26;20226;-73
2024/04/18 04:21:52;;;;;;;1.55;1.45;;;;;;;;;;5451122;26;20386;-72
2024/04/18 04:24:18;;;;;;;1.85;1.75;;;;;;;;;;5450935;26;20226;-72
2024/04/18 04:26:47;;;;;;;2.17;2.00;;;;;;;;;;5450659;26;20306;-72
2024/04/18 04:29:13;;;;;;;2.20;1.70;;;;;;;;;;5450952;26;20627;-73
2024/04/18 04:31:42;;;;;;;1.70;1.60;;;;;;;;;;5450534;26;20289;-73
2024/04/18 04:34:08;;;;;;;2.03;1.75;;;;;;;;;;5450569;26;20714;-73
2024/04/18 04:36:39;;;;;;;2.88;1.92;;;;;;;;;;5451246;26;20238;-73
2024/04/18 04:39:07;;;;;;;1.92;1.83;;;;;;;;;;5450838;26;20241;-73
2024/04/18 04:41:36;;;;;;;2.00;1.83;;;;;;;;;;5450768;26;20829;-73
2024/04/18 04:44:02;;;;;;;2.67;2.47;;;;;;;;;;5450357;26;20272;-73
2024/04/18 04:46:30;;;;;;;2.45;2.25;;;;;;;;;;5450710;26;20230;-72
2024/04/18 04:48:57;;;;;;;3.97;2.15;;;;;;;;;;5450759;26;20238;-73
2024/04/18 04:51:26;;;;;;;2.15;1.95;;;;;;;;;;5449988;26;20289;-73
2024/04/18 04:53:57;;;;;;;2.05;1.90;;;;;;;;;;5449158;26;20242;-73
2024/04/18 04:56:23;;;;;;;2.92;1.75;;;;;;;;;;5450038;26;20238;-72
2024/04/18 04:58:52;;;;;;;5.07;1.88;;;;;;;;;;5448379;26;20354;-73
2024/04/18 05:01:18;;;;;;;2.85;2.13;;;;;;;;;;5448791;26;20230;-72
2024/04/18 05:03:47;;;;;;;3.28;2.92;;;;;;;;;;5449680;26;20303;-73
2024/04/18 05:06:13;;;;;;;2.70;2.50;;;;;;;;;;5450095;26;20226;-72
2024/04/18 05:08:42;;;;;;;2.22;2.03;;;;;;;;;;5449971;26;20242;-73
2024/04/18 05:11:11;;;;;;;5.05;3.22;;;;;;;;;;5450214;26;20724;-73
2024/04/18 05:13:40;;;;;;;4.45;3.15;;;;;;;;;;5449922;26;20237;-73
2024/04/18 05:16:06;;;;;;;4.00;3.60;;;;;;;;;;5450325;26;20222;-73
2024/04/18 05:18:35;;;;;;;5.50;3.65;;;;;;;;;;5450225;26;20241;-73
2024/04/18 05:21:01;;;;;;;3.42;2.70;;;;;;;;;;5450216;26;20222;-73
2024/04/18 05:23:30;;;;;;;4.45;2.67;;;;;;;;;;5449492;26;20237;-73
2024/04/18 05:25:56;;;;;;;4.72;3.20;;;;;;;;;;5450334;26;20222;-73
2024/04/18 05:28:40;;;;;;;4.22;3.40;;;;;;;;;;5449955;26;20242;-72
2024/04/18 05:31:07;;;;;;;5.28;3.05;;;;;;;;;;5450118;26;20301;-73
2024/04/18 05:33:35;;;;;;;3.35;3.10;;;;;;;;;;5449701;26;20260;-73
2024/04/18 05:36:04;;;;;;;4.20;3.65;;;;;;;;;;5450119;26;20230;-73
2024/04/18 05:38:33;;;;;;;3.30;3.00;;;;;;;;;;5449891;26;20291;-73
2024/04/18 05:41:02;;;;;;;3.42;2.90;;;;;;;;;;5450153;26;20708;-73
2024/04/18 05:43:33;;;;;;;2.65;2.45;;;;;;;;;;5449045;26;20268;-73
2024/04/18 05:46:02;;;;;;;4.07;3.67;;;;;;;;;;5449548;26;20227;-73
2024/04/18 05:48:32;;;;;;;3.63;3.25;;;;;;;;;;5449624;26;20293;-73
2024/04/18 05:51:01;;;;;;;2.83;2.63;;;;;;;;;;5449886;26;20230;-73
2024/04/18 05:53:30;;;;;;;3.15;2.70;;;;;;;;;;5449557;26;20736;-73
2024/04/18 05:55:58;;;;;;;2.50;2.40;;;;;;;;;;5449793;26;20728;-73
2024/04/18 05:58:28;;;;;;;3.85;2.80;;;;;;;;;;5449619;26;20889;-73
2024/04/18 06:01:00;;;;;;;3.53;3.15;;;;;;;;;;5449423;26;20226;-73
2024/04/18 06:03:29;;;;;;;3.03;2.80;;;;;;;;;;5449081;26;20226;-73
2024/04/18 06:05:58;;;;;;;3.33;2.90;;;;;;;;;;5449375;26;20226;-73
2024/04/18 06:08:27;;;;;;;3.17;2.88;;;;;;;;;;5449254;26;20305;-73
2024/04/18 06:10:56;;;;;;;4.18;3.78;;;;;;;;;;5449313;26;20260;-73
2024/04/18 06:13:26;;;;;;;5.45;4.80;;;;;;;;;;5448883;26;20226;-73
2024/04/18 06:15:56;;;;;;;2.88;2.67;;;;;;;;;;5449216;26;20226;-73
2024/04/18 06:18:29;;;;;;;3.50;3.25;;;;;;;;;;5448832;26;20316;-73
2024/04/18 06:20:58;;;;;;;4.78;3.25;;;;;;;;;;5449113;26;20226;-73
2024/04/18 06:23:26;;;;;;;6.50;3.60;;;;;;;;;;5446767;26;20274;-73
2024/04/18 06:25:56;;;;;;;4.10;3.80;;;;;;;;;;5448286;26;20238;-73
2024/04/18 06:28:25;;;;;;;3.72;3.42;;;;;;;;;;5443400;26;20237;-73
2024/04/18 06:30:54;;;;;;;2.97;2.78;;;;;;;;;;5448930;26;20265;-73
2024/04/18 06:33:25;;;;;;;3.80;3.53;;;;;;;;;;5448702;26;20720;-73
2024/04/18 06:35:57;;;;;;;3.47;2.80;;;;;;;;;;5449044;26;20230;-73
2024/04/18 06:38:26;;;;;;;3.50;2.80;;;;;;;;;;5447210;26;20294;-73
2024/04/18 06:40:55;;;;;;;3.03;2.72;;;;;;;;;;5447899;26;20230;-73
2024/04/18 06:43:23;;;;;;;3.05;2.85;;;;;;;;;;5447395;26;20277;-73
2024/04/18 06:45:52;;;;;;;3.55;3.25;;;;;;;;;;5447800;26;20246;-74
2024/04/18 06:48:21;;;;;;;3.50;3.30;;;;;;;;;;5448080;26;20840;-73
2024/04/18 06:50:50;;;;;;;3.25;3.05;;;;;;;;;;5448772;26;20258;-73
2024/04/18 06:53:21;;;;;;;4.40;4.03;;;;;;;;;;5448104;26;20227;-73
2024/04/18 06:55:50;;;;;;;3.83;3.63;;;;;;;;;;5450396;26;20222;-74
2024/04/18 06:58:19;;;;;;;3.15;2.95;;;;;;;;;;5450407;26;20243;-73
2024/04/18 07:00:48;;;;;;;3.80;3.50;;;;;;;;;;5446089;26;20230;-74
2024/04/18 07:03:17;;;;;;;3.42;3.22;;;;;;;;;;5450049;26;20268;-74
2024/04/18 07:05:46;;;;;;;3.20;2.90;;;;;;;;;;5446710;26;20599;-73
2024/04/18 07:08:15;;;;;;;6.82;3.70;;;;;;;;;;5452019;26;21095;-73
2024/04/18 07:10:46;;;;;;;3.35;3.15;;;;;;;;;;5452106;26;20276;-73
2024/04/18 07:13:15;;;;;;;2.85;2.58;;;;;;;;;;5451663;26;20227;-73
2024/04/18 07:15:41;;;;;;;2.60;2.40;;;;;;;;;;5451808;26;20234;-73
2024/04/18 07:18:10;;;;;;;3.05;2.75;;;;;;;;;;5451663;26;20234;-73
2024/04/18 07:20:39;;;;;;;4.05;2.97;;;;;;;;;;5446275;26;20235;-73
2024/04/18 07:23:08;;;;;;;3.40;2.65;;;;;;;;;;5450761;26;20277;-73
2024/04/18 07:25:39;;;;;;;3.75;3.45;;;;;;;;;;5451191;26;20542;-73
2024/04/18 07:28:11;;;;;;;4.32;3.92;;;;;;;;;;5450458;26;20443;-74
2024/04/18 07:30:40;;;;;;;3.33;3.13;;;;;;;;;;5450287;26;20234;-73
2024/04/18 07:33:08;;;;;;;3.40;3.08;;;;;;;;;;5450011;26;20784;-73
2024/04/18 07:35:37;;;;;;;2.72;2.45;;;;;;;;;;5451773;26;20549;-74
2024/04/18 07:38:06;;;;;;;3.45;3.13;;;;;;;;;;5451682;26;21183;-73
2024/04/18 07:40:35;;;;;;;3.40;3.10;;;;;;;;;;5451693;26;20222;-74
2024/04/18 07:43:04;;;;;;;4.22;3.22;;;;;;;;;;5451124;26;20330;-74
2024/04/18 07:45:38;;;;;;;2.65;2.45;;;;;;;;;;5451512;26;20226;-74
2024/04/18 07:48:07;;;;;;;3.40;2.80;;;;;;;;;;5451663;26;20298;-74
2024/04/18 07:50:36;;;;;;;3.17;2.70;;;;;;;;;;5451559;26;20271;-74
2024/04/18 07:53:05;;;;;;;3.78;3.20;;;;;;;;;;5451141;26;20227;-75
2024/04/18 07:55:34;;;;;;;3.25;2.95;;;;;;;;;;5451189;26;20772;-74
2024/04/18 07:58:03;;;;;;;3.22;3.03;;;;;;;;;;5451190;26;20290;-75
2024/04/18 08:00:32;;;;;;;4.00;3.65;;;;;;;;;;5451128;26;20257;-74
2024/04/18 08:03:03;;;;;;;3.17;2.97;;;;;;;;;;5450941;26;20226;-75
2024/04/18 08:05:32;;;;;;;3.75;3.38;;;;;;;;;;5451688;26;20322;-75
2024/04/18 08:08:00;;;;;;;4.13;3.75;;;;;;;;;;5449541;26;20244;-75
2024/04/18 08:10:29;;;;;;;3.10;2.90;;;;;;;;;;5450288;26;20269;-74
2024/04/18 08:12:58;;;;;;;2.77;2.57;;;;;;;;;;5450557;26;20228;-75
2024/04/18 08:15:27;;;;;;;5.07;3.10;;;;;;;;;;5451428;26;20892;-74
2024/04/18 08:17:56;;;;;;;3.35;3.05;;;;;;;;;;5450943;26;20286;-74
2024/04/18 08:20:28;;;;;;;3.72;2.95;;;;;;;;;;5451220;26;20243;-74
2024/04/18 08:22:56;;;;;;;2.88;2.67;;;;;;;;;;5449983;26;20275;-74
2024/04/18 08:25:24;;;;;;;3.88;3.58;;;;;;;;;;5410834;26;20284;-74
2024/04/18 08:27:53;;;;;;;3.43;3.13;;;;;;;;;;5412961;26;20275;-74
2024/04/18 08:30:22;;;;;;;3.10;2.50;;;;;;;;;;5414010;26;20454;-74
2024/04/18 08:32:50;;;;;;;;;;;;;;;;;;5415166;26;20096;-74
2024/04/18 08:35:19;;;;;;;;;;;;;;;;;;5414798;26;19932;-74
2024/04/18 08:37:50;;;;;;;4.07;3.00;;;;;;;;;;5415198;26;20095;-75
2024/04/18 08:40:19;;;;;;;4.22;3.10;;;;;;;;;;5414318;26;20229;-75
2024/04/18 08:42:48;;;;;;;4.03;3.33;;;;;;;;;;5412629;26;20225;-74
2024/04/18 08:45:17;;;;;;;3.75;3.55;;;;;;;;;;5413544;26;20456;-74
2024/04/18 08:47:48;;;;;;;5.38;4.70;;;;;;;;;;5414340;26;20244;-74
2024/04/18 08:50:17;;;;;;;4.77;4.43;;;;;;;;;;5414073;26;20281;-75
2024/04/18 08:52:46;;;;;;;4.60;4.20;;;;;;;;;;5412349;26;20523;-74
2024/04/18 08:55:17;;;;;;;4.20;3.60;;;;;;;;;;5412333;26;21063;-74
2024/04/18 08:57:48;;;;;;;3.93;3.63;;;;;;;;;;5412787;26;20480;-74
2024/04/18 09:00:17;;;;;;;4.53;4.23;;;;;;;;;;5413936;26;20458;-75
2024/04/18 09:02:47;;;;;;;3.13;2.93;;;;;;;;;;5412853;26;20452;-74
2024/04/18 09:05:16;;;;;;;4.63;4.23;;;;;;;;;;5413607;26;20459;-75
2024/04/18 09:07:45;;;;;;;3.67;3.37;;;;;;;;;;5413654;26;20542;-75
2024/04/18 09:10:15;;;;;;;3.20;2.90;;;;;;;;;;5413740;26;20513;-75
2024/04/18 09:12:47;;;;;;;3.40;3.20;;;;;;;;;;5414973;26;20511;-74
2024/04/18 09:15:16;;;;;;;2.97;2.77;;;;;;;;;;5448170;26;20838;-74
2024/04/18 09:17:45;;;;;;;2.83;2.63;;;;;;;;;;5449858;26;20474;-75
2024/04/18 09:20:14;;;;;;;2.50;2.30;;;;;;;;;;5449961;26;20522;-75
2024/04/18 09:22:43;;;;;;;2.90;2.70;;;;;;;;;;5449398;26;20478;-76
2024/04/18 09:25:12;;;;;;;2.57;2.37;;;;;;;;;;5449225;26;20859;-74
2024/04/18 09:27:42;;;;;;;2.47;2.37;;;;;;;;;;5449490;26;20474;-74
2024/04/18 09:30:14;;;;;;;3.00;2.80;;;;;;;;;;5449960;26;20459;-74
2024/04/18 09:32:43;;;;;;;1.87;1.77;;;;;;;;;;5449160;26;20468;-73
2024/04/18 09:35:12;;;;;;;2.10;2.00;;;;;;;;;;5449087;26;20457;-73
2024/04/18 09:37:41;;;;;;;1.70;1.60;;;;;;;;;;5449142;26;20527;-73
2024/04/18 09:40:12;;;;;;;4.17;3.53;;;;;;;;;;5449606;26;20563;-73
2024/04/18 09:42:45;;;;;;;4.80;3.58;;;;;;;;;;5448469;26;20461;-73
2024/04/18 09:45:19;;;;;;;1.80;1.67;;;;;;;;;;5449120;26;20227;-73
2024/04/18 09:47:48;;;;;;;1.80;1.60;;;;;;;;;;5449005;26;20238;-73
2024/04/18 09:50:17;;;;;;;2.10;1.90;;;;;;;;;;5448119;26;20230;-73
2024/04/18 09:52:45;;;;;;;1.40;1.30;;;;;;;;;;5448023;26;20252;-72
2024/04/18 09:55:14;;;;;;;1.42;1.33;;;;;;;;;;5448110;26;20630;-73
2024/04/18 09:57:45;;;;;;;1.30;1.20;;;;;;;;;;5447837;26;20240;-73
2024/04/18 10:00:17;;;;;;;1.98;1.75;;;;;;;;;;5444000;26;20273;-73
2024/04/18 10:02:47;;;;;;;2.60;2.00;;;;;;;;;;5447661;26;20238;-73
2024/04/18 10:05:16;;;;;;;2.60;2.20;;;;;;;;;;5444594;26;20614;-73
2024/04/18 10:07:45;;;;;;;2.90;2.70;;;;;;;;;;5448201;26;20611;-73
2024/04/18 10:10:14;;;;;;;3.60;3.40;;;;;;;;;;5444052;26;20473;-73
2024/04/18 10:12:43;;;;;;;5.67;3.80;;;;;;;;;;5448021;26;20474;-73
2024/04/18 10:15:12;;;;;;;4.30;3.90;;;;;;;;;;5448665;26;20465;-72
2024/04/18 10:17:44;;;;;;;4.17;3.87;;;;;;;;;;5447144;26;21024;-73
2024/04/18 10:20:15;;;;;;;3.10;2.90;;;;;;;;;;5448162;26;20817;-73
2024/04/18 10:22:44;;;;;;;3.33;3.13;;;;;;;;;;5448179;26;20526;-73
2024/04/18 10:25:20;;;;;;;3.33;3.00;;;;;;;;;;5448233;26;20228;-73
2024/04/18 10:27:49;;;;;;;4.10;3.30;;;;;;;;;;5447031;26;20478;-73
2024/04/18 10:30:18;;;;;;;4.27;3.40;;;;;;;;;;5444260;26;20470;-73
2024/04/18 10:32:52;;;;;;;5.20;4.70;;;;;;;;;;5450735;26;20478;-73
2024/04/18 10:35:21;;;;;;;3.90;3.50;;;;;;;;;;5447920;26;20526;-72
2024/04/18 10:37:54;;;;;;;4.37;3.97;;;;;;;;;;5450929;26;20839;-72
2024/04/18 10:40:23;;;;;;;4.67;4.27;;;;;;;;;;5451032;26;20482;-72
2024/04/18 10:42:52;;;;;;;7.53;6.83;;;;;;;;;;5450631;26;20473;-72
2024/04/18 10:45:21;;;;;;;6.73;6.23;;;;;;;;;;5451704;26;20514;-72
2024/04/18 10:47:57;;;;;;;9.70;7.07;;;;;;;;;;5450926;26;20541;-73
2024/04/18 10:50:26;;;;;;;6.50;6.00;;;;;;;;;;5451404;26;20824;-72
2024/04/18 10:52:55;;;;;;;6.77;6.17;;;;;;;;;;5440430;26;20478;-72
2024/04/18 10:55:25;;;;;;;6.68;6.07;;;;;;;;;;5450825;26;20537;-73
2024/04/18 10:57:54;;;;;;;6.20;5.80;;;;;;;;;;5450434;26;20252;-73
2024/04/18 11:00:23;;;;;;;6.77;6.13;;;;;;;;;;5450815;26;20821;-73
2024/04/18 11:02:51;;;;;;;6.40;5.90;;;;;;;;;;5450304;26;20474;-73
2024/04/18 11:05:23;;;;;;;7.80;5.67;;;;;;;;;;5450338;26;20530;-73
2024/04/18 11:07:53;;;;;;;5.47;5.07;;;;;;;;;;5450348;26;20526;-73
2024/04/18 11:10:22;;;;;;;5.50;5.00;;;;;;;;;;5450497;26;20477;-73
2024/04/18 11:12:51;;;;;;;4.97;4.60;;;;;;;;;;5449756;26;21020;-73
2024/04/18 11:15:20;;;;;;;4.90;4.50;;;;;;;;;;5449830;26;20518;-73
2024/04/18 11:17:49;;;;;;;5.33;4.93;;;;;;;;;;5445782;26;20482;-74
2024/04/18 11:20:18;;;;;;;4.93;4.43;;;;;;;;;;5450526;26;20522;-74
2024/04/18 11:22:50;;;;;;;4.73;4.33;;;;;;;;;;5449469;26;20467;-74
2024/04/18 11:25:19;;;;;;;4.80;4.50;;;;;;;;;;5449934;26;21012;-74
2024/04/18 11:27:45;;;;;;;5.13;4.73;;;;;;;;;;5450267;26;20477;-74
2024/04/18 11:30:18;;;;;;;6.50;5.73;;;;;;;;;;5450707;26;20577;-74
2024/04/18 11:32:54;;;;;;;5.90;5.50;;;;;;;;;;5450823;26;20470;-74
2024/04/18 11:35:23;;;;;;;8.53;7.53;;;;;;;;;;5451123;26;20513;-75
2024/04/18 11:37:55;;;;;;;5.80;5.40;;;;;;;;;;5441061;26;20527;-75
2024/04/18 11:40:24;;;;;;;4.53;4.13;;;;;;;;;;5422960;26;20545;-75
2024/04/18 11:42:52;;;;;;;4.20;3.90;;;;;;;;;;5445428;26;20479;-75
2024/04/18 11:45:21;;;;;;;5.63;5.13;;;;;;;;;;5423267;26;20465;-76
2024/04/18 11:47:55;;;;;;;6.70;5.10;;;;;;;;;;5425079;26;21496;-75
2024/04/18 11:50:25;;;;;;;4.43;4.17;;;;;;;;;;5424183;26;20814;-75
2024/04/18 11:52:56;;;;;;;3.97;3.70;;;;;;;;;;5449848;26;20819;-75
2024/04/18 11:55:25;;;;;;;4.50;4.20;;;;;;;;;;5449602;26;20945;-75
2024/04/18 11:57:54;;;;;;;5.57;5.07;;;;;;;;;;5444034;26;20539;-75
2024/04/18 12:00:23;;;;;;;4.00;3.70;;;;;;;;;;5414373;26;20524;-74
2024/04/18 12:02:52;;;;;;;5.37;4.87;;;;;;;;;;5433992;26;20537;-75
2024/04/18 12:05:21;;;;;;;4.73;4.33;;;;;;;;;;5416857;26;20513;-75
2024/04/18 12:07:50;;;;;;;5.83;3.80;;;;;;;;;;5423931;26;20839;-74
2024/04/18 12:10:22;;;;;;;3.87;3.57;;;;;;;;;;5417015;26;20476;-73
2024/04/18 12:12:50;;;;;;;5.43;2.90;;;;;;;;;;5423313;26;20530;-73
2024/04/18 12:15:19;;;;;;;3.07;2.80;;;;;;;;;;5449817;26;20533;-72
2024/04/18 12:17:48;;;;;;;2.47;2.27;;;;;;;;;;5449463;26;20485;-72
2024/04/18 12:20:18;;;;;;;2.70;2.37;;;;;;;;;;5429727;26;20468;-73
2024/04/18 12:22:47;;;;;;;2.87;2.67;;;;;;;;;;5439505;26;20478;-73
2024/04/18 12:25:15;;;;;;;2.93;2.63;;;;;;;;;;5420656;26;20473;-72
2024/04/18 12:27:46;;;;;;;3.17;2.97;;;;;;;;;;5444246;26;20584;-73
2024/04/18 12:30:15;;;;;;;3.90;3.57;;;;;;;;;;5450357;26;20470;-73
2024/04/18 12:32:44;;;;;;;3.57;3.27;;;;;;;;;;5436519;26;20471;-73
2024/04/18 12:35:12;;;;;;;4.33;3.93;;;;;;;;;;5434468;26;20535;-74
2024/04/18 12:37:41;;;;;;;4.10;3.60;;;;;;;;;;5447821;26;20898;-74
2024/04/18 12:40:10;;;;;;;3.90;3.70;;;;;;;;;;5426584;26;20468;-74
2024/04/18 12:42:39;;;;;;;4.03;3.63;;;;;;;;;;5448237;26;20463;-74
2024/04/18 12:45:11;;;;;;;5.20;3.73;;;;;;;;;;5449367;26;20467;-74
2024/04/18 12:47:40;;;;;;;3.47;3.23;;;;;;;;;;5426793;26;20529;-74
2024/04/18 12:50:09;;;;;;;5.23;3.40;;;;;;;;;;5449683;26;20460;-75
2024/04/18 12:52:38;;;;;;;3.20;2.90;;;;;;;;;;5431392;26;20471;-75
2024/04/18 12:55:07;;;;;;;3.80;3.60;;;;;;;;;;5439843;26;20533;-75
2024/04/18 12:57:36;;;;;;;3.70;3.23;;;;;;;;;;5436511;26;20487;-75
2024/04/18 13:00:05;;;;;;;3.57;3.37;;;;;;;;;;5415721;26;20471;-75
2024/04/18 13:02:36;;;;;;;4.20;3.80;;;;;;;;;;5418755;26;20471;-75
2024/04/18 13:05:05;;;;;;;5.03;3.07;;;;;;;;;;5417872;26;20475;-76
2024/04/18 13:07:34;;;;;;;3.80;3.50;;;;;;;;;;5449254;26;20474;-75
2024/04/18 13:10:03;;;;;;;4.10;3.80;;;;;;;;;;5433562;26;20811;-76
2024/04/18 13:12:32;;;;;;;2.87;2.67;;;;;;;;;;5439444;26;20543;-75
2024/04/18 13:15:01;;;;;;;2.90;2.33;;;;;;;;;;5429217;26;20528;-75
2024/04/18 13:17:30;;;;;;;3.23;3.03;;;;;;;;;;5434874;26;20525;-74
2024/04/18 13:20:02;;;;;;;2.87;2.67;;;;;;;;;;5442917;26;20525;-72
2024/04/18 13:22:30;;;;;;;2.53;2.33;;;;;;;;;;5422437;26;20479;-72
2024/04/18 13:24:59;;;;;;;2.53;2.33;;;;;;;;;;5440998;26;20532;-72
2024/04/18 13:27:29;;;;;;;2.33;2.23;;;;;;;;;;5417193;26;20470;-72
2024/04/18 13:29:58;;;;;;;2.13;1.93;;;;;;;;;;5418033;26;20485;-72
2024/04/18 13:32:27;;;;;;;2.30;2.10;;;;;;;;;;5412676;26;20473;-73
2024/04/18 13:34:56;;;;;;;1.80;1.70;;;;;;;;;;5436526;26;20483;-72
2024/04/18 13:37:27;;;;;;;2.33;2.17;;;;;;;;;;5426716;26;20877;-72
2024/04/18 13:39:56;;;;;;;2.37;2.17;;;;;;;;;;5423309;26;20587;-72
2024/04/18 13:42:25;;;;;;;3.83;2.23;;;;;;;;;;5412592;26;20473;-72
2024/04/18 13:44:54;;;;;;;2.57;2.37;;;;;;;;;;5428677;26;20476;-72
2024/04/18 13:47:23;;;;;;;2.90;2.70;;;;;;;;;;5420870;26;20522;-72
2024/04/18 13:49:52;;;;;;;4.00;2.87;;;;;;;;;;5426224;26;20467;-72
2024/04/18 13:52:21;;;;;;;2.10;2.00;;;;;;;;;;5439997;26;20559;-73
2024/04/18 13:54:52;;;;;;;2.87;2.13;;;;;;;;;;5412514;26;20467;-72
2024/04/18 13:57:21;;;;;;;3.70;2.10;;;;;;;;;;5412818;26;20600;-72
2024/04/18 13:59:52;;;;;;;2.40;2.30;;;;;;;;;;5412286;26;21099;-72
2024/04/18 14:02:21;;;;;;;3.10;2.80;;;;;;;;;;5412575;26;20471;-72
2024/04/18 14:04:50;;;;;;;4.90;4.50;;;;;;;;;;5412744;26;20858;-72
2024/04/18 14:07:19;;;;;;;4.10;3.80;;;;;;;;;;5416350;26;20827;-72
2024/04/18 14:09:47;;;;;;;5.50;4.73;;;;;;;;;;5416640;26;20525;-72
2024/04/18 14:12:19;;;;;;;4.03;3.67;;;;;;;;;;5416014;26;20463;-72
2024/04/18 14:14:48;;;;;;;4.20;3.80;;;;;;;;;;5416091;26;20467;-72
2024/04/18 14:20:01;;;;;;;5.40;4.07;;;;;;;;;;5418760;26;20922;-73
2024/04/18 14:22:30;;;;;;;3.87;3.60;;;;;;;;;;5415987;26;20465;-72
2024/04/18 14:24:59;;;;;;;2.67;2.47;;;;;;;;;;5415733;26;20555;-73
2024/04/18 14:27:30;;;;;;;2.43;2.23;;;;;;;;;;5415702;26;20480;-74
2024/04/18 14:29:59;;;;;;;2.80;2.70;;;;;;;;;;5416180;26;20514;-73
2024/04/18 14:32:28;;;;;;;2.90;2.50;;;;;;;;;;5415940;26;20519;-73
2024/04/18 14:34:57;;;;;;;2.87;2.23;;;;;;;;;;5416323;26;20811;-73
2024/04/18 14:37:26;;;;;;;2.80;2.40;;;;;;;;;;5415839;26;20487;-73
2024/04/18 14:39:55;;;;;;;2.93;2.73;;;;;;;;;;5416018;26;20517;-74
2024/04/18 14:42:24;;;;;;;2.23;2.07;;;;;;;;;;5415458;26;21001;-74
2024/04/18 14:44:55;;;;;;;2.30;2.10;;;;;;;;;;5415901;26;20522;-74
2024/04/18 14:47:24;;;;;;;2.40;2.30;;;;;;;;;;5416241;26;21064;-74
2024/04/18 14:49:54;;;;;;;3.03;2.73;;;;;;;;;;5415379;26;21032;-75
2024/04/18 14:52:23;;;;;;;2.37;2.27;;;;;;;;;;5415197;26;21126;-74
2024/04/18 14:54:52;;;;;;;2.60;2.40;;;;;;;;;;5415843;26;20564;-73